sensor_id;sensor_type;location;lat;lon;timestamp;P1;durP1;ratioP1;P2;durP2;ratioP2
37157;SDS011;23050;51.776;22.638;2023-03-23T00:02:02;29.80;;;15.93;;
37157;SDS011;23050;51.776;22.638;2023-03-23T00:04:28;32.50;;;17.20;;
37157;SDS011;23050;51.776;22.638;2023-03-23T00:06:56;52.73;;;26.97;;
37157;SDS011;23050;51.776;22.638;2023-03-23T00:09:22;40.15;;;21.25;;
37157;SDS011;23050;51.776;22.638;2023-03-23T00:11:50;30.75;;;16.73;;
37157;SDS011;23050;51.776;22.638;2023-03-23T00:14:15;27.95;;;15.75;;
37157;SDS011;23050;51.776;22.638;2023-03-23T00:16:42;40.33;;;21.95;;
37157;SDS011;23050;51.776;22.638;2023-03-23T00:19:09;39.55;;;20.17;;
37157;SDS011;23050;51.776;22.638;2023-03-23T00:21:38;29.90;;;16.83;;
37157;SDS011;23050;51.776;22.638;2023-03-23T00:24:10;29.08;;;15.57;;
37157;SDS011;23050;51.776;22.638;2023-03-23T00:26:44;27.15;;;16.23;;
37157;SDS011;23050;51.776;22.638;2023-03-23T00:29:20;29.55;;;14.68;;
37157;SDS011;23050;51.776;22.638;2023-03-23T00:31:47;30.85;;;15.98;;
37157;SDS011;23050;51.776;22.638;2023-03-23T00:34:17;40.80;;;17.52;;
37157;SDS011;23050;51.776;22.638;2023-03-23T00:36:49;34.55;;;17.95;;
37157;SDS011;23050;51.776;22.638;2023-03-23T00:39:21;40.75;;;19.73;;
37157;SDS011;23050;51.776;22.638;2023-03-23T00:41:49;27.25;;;15.13;;
37157;SDS011;23050;51.776;22.638;2023-03-23T00:44:15;38.80;;;19.90;;
37157;SDS011;23050;51.776;22.638;2023-03-23T00:46:42;52.80;;;25.52;;
37157;SDS011;23050;51.776;22.638;2023-03-23T00:49:14;28.50;;;14.30;;
37157;SDS011;23050;51.776;22.638;2023-03-23T00:51:42;32.97;;;16.55;;
37157;SDS011;23050;51.776;22.638;2023-03-23T00:54:08;23.15;;;13.45;;
37157;SDS011;23050;51.776;22.638;2023-03-23T00:56:34;29.33;;;16.05;;
37157;SDS011;23050;51.776;22.638;2023-03-23T00:58:59;27.33;;;14.43;;
37157;SDS011;23050;51.776;22.638;2023-03-23T01:01:25;28.05;;;14.57;;
37157;SDS011;23050;51.776;22.638;2023-03-23T01:03:51;28.27;;;14.65;;
37157;SDS011;23050;51.776;22.638;2023-03-23T01:06:25;26.60;;;14.70;;
37157;SDS011;23050;51.776;22.638;2023-03-23T01:08:52;24.63;;;13.02;;
37157;SDS011;23050;51.776;22.638;2023-03-23T01:11:19;29.15;;;14.82;;
37157;SDS011;23050;51.776;22.638;2023-03-23T01:13:45;27.50;;;13.70;;
37157;SDS011;23050;51.776;22.638;2023-03-23T01:16:12;28.45;;;13.65;;
37157;SDS011;23050;51.776;22.638;2023-03-23T01:18:38;27.75;;;13.48;;
37157;SDS011;23050;51.776;22.638;2023-03-23T01:21:05;23.40;;;13.07;;
37157;SDS011;23050;51.776;22.638;2023-03-23T01:23:39;26.80;;;13.93;;
37157;SDS011;23050;51.776;22.638;2023-03-23T01:26:15;39.30;;;18.80;;
37157;SDS011;23050;51.776;22.638;2023-03-23T01:28:43;32.67;;;15.73;;
37157;SDS011;23050;51.776;22.638;2023-03-23T01:31:10;26.40;;;13.48;;
37157;SDS011;23050;51.776;22.638;2023-03-23T01:33:38;24.38;;;13.23;;
37157;SDS011;23050;51.776;22.638;2023-03-23T01:36:06;21.80;;;12.75;;
37157;SDS011;23050;51.776;22.638;2023-03-23T01:38:35;25.52;;;13.35;;
37157;SDS011;23050;51.776;22.638;2023-03-23T01:41:01;24.05;;;13.98;;
37157;SDS011;23050;51.776;22.638;2023-03-23T01:43:27;24.67;;;13.32;;
37157;SDS011;23050;51.776;22.638;2023-03-23T01:45:53;23.98;;;13.48;;
37157;SDS011;23050;51.776;22.638;2023-03-23T01:48:32;22.92;;;12.63;;
37157;SDS011;23050;51.776;22.638;2023-03-23T01:51:08;21.88;;;12.95;;
37157;SDS011;23050;51.776;22.638;2023-03-23T01:53:38;22.92;;;12.52;;
37157;SDS011;23050;51.776;22.638;2023-03-23T01:56:09;23.58;;;13.73;;
37157;SDS011;23050;51.776;22.638;2023-03-23T01:58:39;25.50;;;13.70;;
37157;SDS011;23050;51.776;22.638;2023-03-23T02:01:06;23.63;;;13.27;;
37157;SDS011;23050;51.776;22.638;2023-03-23T02:03:36;25.92;;;14.02;;
37157;SDS011;23050;51.776;22.638;2023-03-23T02:06:06;27.02;;;14.70;;
37157;SDS011;23050;51.776;22.638;2023-03-23T02:08:32;26.35;;;14.15;;
37157;SDS011;23050;51.776;22.638;2023-03-23T02:10:59;25.63;;;13.90;;
37157;SDS011;23050;51.776;22.638;2023-03-23T02:13:25;25.63;;;13.52;;
37157;SDS011;23050;51.776;22.638;2023-03-23T02:27:54;27.45;;;14.90;;
37157;SDS011;23050;51.776;22.638;2023-03-23T02:35:50;27.58;;;14.60;;
37157;SDS011;23050;51.776;22.638;2023-03-23T02:38:23;28.27;;;14.98;;
37157;SDS011;23050;51.776;22.638;2023-03-23T02:41:09;29.08;;;16.48;;
37157;SDS011;23050;51.776;22.638;2023-03-23T02:43:38;29.58;;;15.02;;
37157;SDS011;23050;51.776;22.638;2023-03-23T02:46:07;30.10;;;16.27;;
37157;SDS011;23050;51.776;22.638;2023-03-23T02:48:35;31.63;;;16.02;;
37157;SDS011;23050;51.776;22.638;2023-03-23T02:51:03;30.27;;;15.95;;
37157;SDS011;23050;51.776;22.638;2023-03-23T02:53:30;27.17;;;15.48;;
37157;SDS011;23050;51.776;22.638;2023-03-23T02:55:59;29.33;;;16.52;;
37157;SDS011;23050;51.776;22.638;2023-03-23T02:58:28;28.90;;;15.13;;
37157;SDS011;23050;51.776;22.638;2023-03-23T03:00:54;25.20;;;14.80;;
37157;SDS011;23050;51.776;22.638;2023-03-23T03:03:21;29.90;;;15.65;;
37157;SDS011;23050;51.776;22.638;2023-03-23T03:11:28;29.40;;;16.63;;
37157;SDS011;23050;51.776;22.638;2023-03-23T03:13:59;31.63;;;17.58;;
37157;SDS011;23050;51.776;22.638;2023-03-23T03:19:44;34.47;;;16.73;;
37157;SDS011;23050;51.776;22.638;2023-03-23T03:22:12;32.28;;;17.50;;
37157;SDS011;23050;51.776;22.638;2023-03-23T03:24:38;31.83;;;17.20;;
37157;SDS011;23050;51.776;22.638;2023-03-23T03:27:10;32.63;;;17.42;;
37157;SDS011;23050;51.776;22.638;2023-03-23T03:29:40;30.85;;;16.98;;
37157;SDS011;23050;51.776;22.638;2023-03-23T03:32:10;34.53;;;17.67;;
37157;SDS011;23050;51.776;22.638;2023-03-23T03:37:04;31.45;;;17.45;;
37157;SDS011;23050;51.776;22.638;2023-03-23T03:39:31;37.78;;;18.00;;
37157;SDS011;23050;51.776;22.638;2023-03-23T03:42:00;34.08;;;17.70;;
37157;SDS011;23050;51.776;22.638;2023-03-23T03:44:26;32.38;;;17.10;;
37157;SDS011;23050;51.776;22.638;2023-03-23T03:46:52;33.92;;;18.98;;
37157;SDS011;23050;51.776;22.638;2023-03-23T03:49:17;30.15;;;16.38;;
37157;SDS011;23050;51.776;22.638;2023-03-23T03:51:44;32.63;;;17.23;;
37157;SDS011;23050;51.776;22.638;2023-03-23T03:54:09;36.08;;;17.67;;
37157;SDS011;23050;51.776;22.638;2023-03-23T03:56:35;37.38;;;18.25;;
37157;SDS011;23050;51.776;22.638;2023-03-23T03:59:05;31.80;;;17.52;;
37157;SDS011;23050;51.776;22.638;2023-03-23T04:01:31;34.10;;;17.95;;
37157;SDS011;23050;51.776;22.638;2023-03-23T04:03:57;30.83;;;17.85;;
37157;SDS011;23050;51.776;22.638;2023-03-23T04:06:23;33.75;;;18.35;;
37157;SDS011;23050;51.776;22.638;2023-03-23T04:08:49;32.05;;;18.30;;
37157;SDS011;23050;51.776;22.638;2023-03-23T04:11:15;32.28;;;18.02;;
37157;SDS011;23050;51.776;22.638;2023-03-23T04:13:41;37.35;;;19.70;;
37157;SDS011;23050;51.776;22.638;2023-03-23T04:16:07;30.67;;;18.17;;
37157;SDS011;23050;51.776;22.638;2023-03-23T04:18:34;38.13;;;19.33;;
37157;SDS011;23050;51.776;22.638;2023-03-23T04:21:00;35.83;;;19.42;;
37157;SDS011;23050;51.776;22.638;2023-03-23T04:23:27;34.10;;;19.65;;
37157;SDS011;23050;51.776;22.638;2023-03-23T04:25:55;31.17;;;18.20;;
37157;SDS011;23050;51.776;22.638;2023-03-23T04:28:23;32.33;;;18.38;;
37157;SDS011;23050;51.776;22.638;2023-03-23T04:30:50;32.05;;;17.38;;
37157;SDS011;23050;51.776;22.638;2023-03-23T04:33:18;39.55;;;17.65;;
37157;SDS011;23050;51.776;22.638;2023-03-23T04:35:45;37.80;;;19.52;;
37157;SDS011;23050;51.776;22.638;2023-03-23T04:38:13;33.30;;;19.08;;
37157;SDS011;23050;51.776;22.638;2023-03-23T04:40:40;31.80;;;17.85;;
37157;SDS011;23050;51.776;22.638;2023-03-23T04:43:07;35.08;;;19.48;;
37157;SDS011;23050;51.776;22.638;2023-03-23T04:45:34;30.17;;;18.08;;
37157;SDS011;23050;51.776;22.638;2023-03-23T04:48:02;36.58;;;17.67;;
37157;SDS011;23050;51.776;22.638;2023-03-23T04:50:30;34.25;;;19.05;;
37157;SDS011;23050;51.776;22.638;2023-03-23T04:52:57;34.13;;;18.60;;
37157;SDS011;23050;51.776;22.638;2023-03-23T04:55:29;33.53;;;18.27;;
37157;SDS011;23050;51.776;22.638;2023-03-23T04:57:56;31.75;;;18.35;;
37157;SDS011;23050;51.776;22.638;2023-03-23T05:00:25;35.90;;;18.88;;
37157;SDS011;23050;51.776;22.638;2023-03-23T05:02:50;32.80;;;16.88;;
37157;SDS011;23050;51.776;22.638;2023-03-23T05:05:17;34.50;;;17.02;;
37157;SDS011;23050;51.776;22.638;2023-03-23T05:07:44;33.03;;;17.73;;
37157;SDS011;23050;51.776;22.638;2023-03-23T05:10:11;39.58;;;17.67;;
37157;SDS011;23050;51.776;22.638;2023-03-23T05:12:37;29.50;;;16.15;;
37157;SDS011;23050;51.776;22.638;2023-03-23T05:15:04;27.48;;;15.57;;
37157;SDS011;23050;51.776;22.638;2023-03-23T05:17:31;25.35;;;14.90;;
37157;SDS011;23050;51.776;22.638;2023-03-23T05:19:58;26.92;;;14.63;;
37157;SDS011;23050;51.776;22.638;2023-03-23T05:22:26;25.83;;;13.95;;
37157;SDS011;23050;51.776;22.638;2023-03-23T05:24:52;23.38;;;13.68;;
37157;SDS011;23050;51.776;22.638;2023-03-23T05:27:18;25.80;;;14.30;;
37157;SDS011;23050;51.776;22.638;2023-03-23T05:29:44;25.40;;;15.02;;
37157;SDS011;23050;51.776;22.638;2023-03-23T05:32:13;31.05;;;15.60;;
37157;SDS011;23050;51.776;22.638;2023-03-23T05:34:40;24.73;;;14.05;;
37157;SDS011;23050;51.776;22.638;2023-03-23T05:37:07;23.85;;;14.77;;
37157;SDS011;23050;51.776;22.638;2023-03-23T05:39:34;20.55;;;13.23;;
37157;SDS011;23050;51.776;22.638;2023-03-23T05:42:00;22.20;;;13.90;;
37157;SDS011;23050;51.776;22.638;2023-03-23T05:44:26;23.63;;;13.38;;
37157;SDS011;23050;51.776;22.638;2023-03-23T05:46:51;24.33;;;14.02;;
37157;SDS011;23050;51.776;22.638;2023-03-23T05:49:17;27.42;;;14.73;;
37157;SDS011;23050;51.776;22.638;2023-03-23T05:51:43;23.67;;;14.30;;
37157;SDS011;23050;51.776;22.638;2023-03-23T05:54:10;24.92;;;13.85;;
37157;SDS011;23050;51.776;22.638;2023-03-23T05:56:37;24.17;;;13.70;;
37157;SDS011;23050;51.776;22.638;2023-03-23T05:59:02;23.73;;;13.48;;
37157;SDS011;23050;51.776;22.638;2023-03-23T06:01:28;23.27;;;14.15;;
37157;SDS011;23050;51.776;22.638;2023-03-23T06:03:54;21.60;;;13.48;;
37157;SDS011;23050;51.776;22.638;2023-03-23T06:06:23;23.75;;;13.70;;
37157;SDS011;23050;51.776;22.638;2023-03-23T06:08:50;21.25;;;13.00;;
37157;SDS011;23050;51.776;22.638;2023-03-23T06:11:15;21.58;;;12.60;;
37157;SDS011;23050;51.776;22.638;2023-03-23T06:13:41;25.73;;;14.10;;
37157;SDS011;23050;51.776;22.638;2023-03-23T06:16:07;21.63;;;13.30;;
37157;SDS011;23050;51.776;22.638;2023-03-23T06:18:33;23.00;;;13.85;;
37157;SDS011;23050;51.776;22.638;2023-03-23T06:21:02;25.67;;;13.20;;
37157;SDS011;23050;51.776;22.638;2023-03-23T06:23:28;21.95;;;12.65;;
37157;SDS011;23050;51.776;22.638;2023-03-23T06:25:55;17.27;;;12.07;;
37157;SDS011;23050;51.776;22.638;2023-03-23T06:28:23;20.20;;;13.07;;
37157;SDS011;23050;51.776;22.638;2023-03-23T06:30:49;24.35;;;13.45;;
37157;SDS011;23050;51.776;22.638;2023-03-23T06:33:15;20.80;;;12.52;;
37157;SDS011;23050;51.776;22.638;2023-03-23T06:35:42;20.60;;;12.98;;
37157;SDS011;23050;51.776;22.638;2023-03-23T06:38:08;18.45;;;12.27;;
37157;SDS011;23050;51.776;22.638;2023-03-23T06:40:34;23.65;;;14.50;;
37157;SDS011;23050;51.776;22.638;2023-03-23T06:43:00;21.42;;;12.65;;
37157;SDS011;23050;51.776;22.638;2023-03-23T06:45:28;21.95;;;14.15;;
37157;SDS011;23050;51.776;22.638;2023-03-23T06:47:53;21.52;;;13.15;;
37157;SDS011;23050;51.776;22.638;2023-03-23T06:50:19;22.58;;;13.15;;
37157;SDS011;23050;51.776;22.638;2023-03-23T06:52:45;20.80;;;13.93;;
37157;SDS011;23050;51.776;22.638;2023-03-23T06:55:11;24.55;;;13.25;;
37157;SDS011;23050;51.776;22.638;2023-03-23T06:57:38;20.52;;;12.73;;
37157;SDS011;23050;51.776;22.638;2023-03-23T07:00:04;19.70;;;13.02;;
37157;SDS011;23050;51.776;22.638;2023-03-23T07:02:34;23.77;;;13.10;;
37157;SDS011;23050;51.776;22.638;2023-03-23T07:05:00;22.90;;;12.77;;
37157;SDS011;23050;51.776;22.638;2023-03-23T07:07:28;23.50;;;13.68;;
37157;SDS011;23050;51.776;22.638;2023-03-23T07:09:54;23.38;;;13.75;;
37157;SDS011;23050;51.776;22.638;2023-03-23T07:12:20;19.10;;;13.15;;
37157;SDS011;23050;51.776;22.638;2023-03-23T07:14:46;21.10;;;13.02;;
37157;SDS011;23050;51.776;22.638;2023-03-23T07:17:12;24.33;;;13.00;;
37157;SDS011;23050;51.776;22.638;2023-03-23T07:19:38;22.08;;;12.73;;
37157;SDS011;23050;51.776;22.638;2023-03-23T07:22:04;20.30;;;12.18;;
37157;SDS011;23050;51.776;22.638;2023-03-23T07:24:30;22.27;;;13.43;;
37157;SDS011;23050;51.776;22.638;2023-03-23T07:26:59;23.27;;;12.70;;
37157;SDS011;23050;51.776;22.638;2023-03-23T07:29:25;19.02;;;12.25;;
37157;SDS011;23050;51.776;22.638;2023-03-23T07:31:51;18.23;;;11.10;;
37157;SDS011;23050;51.776;22.638;2023-03-23T07:34:17;19.92;;;11.52;;
37157;SDS011;23050;51.776;22.638;2023-03-23T07:36:44;19.67;;;11.18;;
37157;SDS011;23050;51.776;22.638;2023-03-23T07:39:09;18.83;;;11.75;;
37157;SDS011;23050;51.776;22.638;2023-03-23T07:41:35;20.05;;;12.05;;
37157;SDS011;23050;51.776;22.638;2023-03-23T07:44:01;22.15;;;11.93;;
37157;SDS011;23050;51.776;22.638;2023-03-23T07:46:26;19.83;;;12.38;;
37157;SDS011;23050;51.776;22.638;2023-03-23T07:48:52;20.60;;;12.00;;
37157;SDS011;23050;51.776;22.638;2023-03-23T07:51:18;19.30;;;12.40;;
37157;SDS011;23050;51.776;22.638;2023-03-23T07:53:43;19.58;;;12.80;;
37157;SDS011;23050;51.776;22.638;2023-03-23T07:56:10;20.85;;;13.18;;
37157;SDS011;23050;51.776;22.638;2023-03-23T07:58:37;20.48;;;12.35;;
37157;SDS011;23050;51.776;22.638;2023-03-23T08:01:03;20.10;;;12.70;;
37157;SDS011;23050;51.776;22.638;2023-03-23T08:03:28;19.38;;;11.57;;
37157;SDS011;23050;51.776;22.638;2023-03-23T08:05:57;33.75;;;12.77;;
37157;SDS011;23050;51.776;22.638;2023-03-23T08:08:24;19.85;;;11.70;;
37157;SDS011;23050;51.776;22.638;2023-03-23T08:10:50;17.65;;;12.05;;
37157;SDS011;23050;51.776;22.638;2023-03-23T08:13:16;17.35;;;11.68;;
37157;SDS011;23050;51.776;22.638;2023-03-23T08:15:42;16.33;;;10.50;;
37157;SDS011;23050;51.776;22.638;2023-03-23T08:18:09;18.83;;;12.10;;
37157;SDS011;23050;51.776;22.638;2023-03-23T08:20:35;21.33;;;12.10;;
37157;SDS011;23050;51.776;22.638;2023-03-23T08:23:01;18.23;;;11.35;;
37157;SDS011;23050;51.776;22.638;2023-03-23T08:25:28;20.95;;;12.00;;
37157;SDS011;23050;51.776;22.638;2023-03-23T08:27:56;20.38;;;11.73;;
37157;SDS011;23050;51.776;22.638;2023-03-23T08:30:22;17.83;;;12.02;;
37157;SDS011;23050;51.776;22.638;2023-03-23T08:32:49;23.70;;;15.65;;
37157;SDS011;23050;51.776;22.638;2023-03-23T08:35:16;17.17;;;11.77;;
37157;SDS011;23050;51.776;22.638;2023-03-23T08:37:43;19.02;;;11.68;;
37157;SDS011;23050;51.776;22.638;2023-03-23T08:40:22;25.23;;;14.48;;
37157;SDS011;23050;51.776;22.638;2023-03-23T08:42:59;26.52;;;17.15;;
37157;SDS011;23050;51.776;22.638;2023-03-23T08:45:25;31.00;;;21.75;;
37157;SDS011;23050;51.776;22.638;2023-03-23T08:47:51;24.20;;;16.13;;
37157;SDS011;23050;51.776;22.638;2023-03-23T08:50:21;19.03;;;13.57;;
37157;SDS011;23050;51.776;22.638;2023-03-23T08:52:51;22.58;;;13.27;;
37157;SDS011;23050;51.776;22.638;2023-03-23T08:55:18;19.70;;;12.95;;
37157;SDS011;23050;51.776;22.638;2023-03-23T08:57:44;18.80;;;12.48;;
37157;SDS011;23050;51.776;22.638;2023-03-23T09:00:12;18.10;;;11.25;;
37157;SDS011;23050;51.776;22.638;2023-03-23T09:02:43;17.67;;;11.90;;
37157;SDS011;23050;51.776;22.638;2023-03-23T09:05:12;20.85;;;13.13;;
37157;SDS011;23050;51.776;22.638;2023-03-23T09:07:40;20.45;;;13.38;;
37157;SDS011;23050;51.776;22.638;2023-03-23T09:10:07;17.55;;;11.13;;
37157;SDS011;23050;51.776;22.638;2023-03-23T09:12:34;20.70;;;11.77;;
37157;SDS011;23050;51.776;22.638;2023-03-23T09:15:01;18.83;;;10.98;;
37157;SDS011;23050;51.776;22.638;2023-03-23T09:17:33;21.65;;;13.25;;
37157;SDS011;23050;51.776;22.638;2023-03-23T09:22:32;23.45;;;15.90;;
37157;SDS011;23050;51.776;22.638;2023-03-23T09:24:58;23.30;;;14.07;;
37157;SDS011;23050;51.776;22.638;2023-03-23T09:27:23;25.00;;;13.55;;
37157;SDS011;23050;51.776;22.638;2023-03-23T09:29:50;20.23;;;14.10;;
37157;SDS011;23050;51.776;22.638;2023-03-23T09:32:16;18.35;;;10.85;;
37157;SDS011;23050;51.776;22.638;2023-03-23T09:34:41;17.05;;;11.02;;
37157;SDS011;23050;51.776;22.638;2023-03-23T09:37:07;18.48;;;12.38;;
37157;SDS011;23050;51.776;22.638;2023-03-23T09:39:33;19.58;;;12.25;;
37157;SDS011;23050;51.776;22.638;2023-03-23T09:42:11;17.98;;;11.38;;
37157;SDS011;23050;51.776;22.638;2023-03-23T09:45:04;22.50;;;13.90;;
37157;SDS011;23050;51.776;22.638;2023-03-23T09:47:41;29.52;;;14.25;;
37157;SDS011;23050;51.776;22.638;2023-03-23T09:50:24;28.90;;;15.45;;
37157;SDS011;23050;51.776;22.638;2023-03-23T09:52:58;19.13;;;10.60;;
37157;SDS011;23050;51.776;22.638;2023-03-23T09:55:33;15.23;;;10.05;;
37157;SDS011;23050;51.776;22.638;2023-03-23T10:00:48;18.65;;;10.30;;
37157;SDS011;23050;51.776;22.638;2023-03-23T10:03:32;15.85;;;10.07;;
37157;SDS011;23050;51.776;22.638;2023-03-23T10:06:04;20.35;;;11.18;;
37157;SDS011;23050;51.776;22.638;2023-03-23T10:08:32;15.77;;;10.57;;
37157;SDS011;23050;51.776;22.638;2023-03-23T10:13:56;17.83;;;10.77;;
37157;SDS011;23050;51.776;22.638;2023-03-23T10:16:36;24.10;;;11.98;;
37157;SDS011;23050;51.776;22.638;2023-03-23T10:19:12;23.13;;;13.95;;
37157;SDS011;23050;51.776;22.638;2023-03-23T10:21:47;23.30;;;12.05;;
37157;SDS011;23050;51.776;22.638;2023-03-23T10:24:19;25.73;;;15.73;;
37157;SDS011;23050;51.776;22.638;2023-03-23T10:29:52;17.42;;;10.57;;
37157;SDS011;23050;51.776;22.638;2023-03-23T10:32:43;16.75;;;10.93;;
37157;SDS011;23050;51.776;22.638;2023-03-23T10:35:23;19.98;;;11.02;;
37157;SDS011;23050;51.776;22.638;2023-03-23T10:38:19;15.55;;;9.65;;
37157;SDS011;23050;51.776;22.638;2023-03-23T10:40:54;15.63;;;9.68;;
37157;SDS011;23050;51.776;22.638;2023-03-23T10:43:32;18.10;;;10.32;;
37157;SDS011;23050;51.776;22.638;2023-03-23T10:46:02;16.80;;;8.85;;
37157;SDS011;23050;51.776;22.638;2023-03-23T10:48:36;14.93;;;9.30;;
37157;SDS011;23050;51.776;22.638;2023-03-23T10:51:03;18.38;;;9.98;;
37157;SDS011;23050;51.776;22.638;2023-03-23T10:53:32;19.10;;;11.88;;
37157;SDS011;23050;51.776;22.638;2023-03-23T10:56:01;15.18;;;10.45;;
37157;SDS011;23050;51.776;22.638;2023-03-23T10:58:30;18.08;;;9.27;;
37157;SDS011;23050;51.776;22.638;2023-03-23T11:00:59;15.85;;;9.10;;
37157;SDS011;23050;51.776;22.638;2023-03-23T11:03:39;17.95;;;8.27;;
37157;SDS011;23050;51.776;22.638;2023-03-23T11:06:06;25.42;;;13.43;;
37157;SDS011;23050;51.776;22.638;2023-03-23T11:08:35;19.00;;;11.02;;
37157;SDS011;23050;51.776;22.638;2023-03-23T11:11:16;23.17;;;11.63;;
37157;SDS011;23050;51.776;22.638;2023-03-23T11:13:42;17.98;;;11.57;;
37157;SDS011;23050;51.776;22.638;2023-03-23T11:16:10;12.90;;;7.72;;
37157;SDS011;23050;51.776;22.638;2023-03-23T11:18:48;13.90;;;7.68;;
37157;SDS011;23050;51.776;22.638;2023-03-23T11:21:15;14.23;;;9.10;;
37157;SDS011;23050;51.776;22.638;2023-03-23T11:23:42;11.88;;;7.82;;
37157;SDS011;23050;51.776;22.638;2023-03-23T11:29:05;10.85;;;7.95;;
37157;SDS011;23050;51.776;22.638;2023-03-23T11:31:43;11.32;;;8.40;;
37157;SDS011;23050;51.776;22.638;2023-03-23T11:34:24;12.60;;;8.63;;
37157;SDS011;23050;51.776;22.638;2023-03-23T11:36:58;13.13;;;8.77;;
37157;SDS011;23050;51.776;22.638;2023-03-23T11:42:24;12.93;;;7.90;;
37157;SDS011;23050;51.776;22.638;2023-03-23T11:44:53;10.93;;;7.35;;
37157;SDS011;23050;51.776;22.638;2023-03-23T11:50:00;12.15;;;6.75;;
37157;SDS011;23050;51.776;22.638;2023-03-23T11:52:41;10.05;;;6.97;;
37157;SDS011;23050;51.776;22.638;2023-03-23T11:55:25;10.32;;;7.45;;
37157;SDS011;23050;51.776;22.638;2023-03-23T11:57:55;9.45;;;6.60;;
37157;SDS011;23050;51.776;22.638;2023-03-23T12:00:27;10.98;;;6.47;;
37157;SDS011;23050;51.776;22.638;2023-03-23T12:02:58;10.68;;;7.03;;
37157;SDS011;23050;51.776;22.638;2023-03-23T12:14:00;11.68;;;6.22;;
37157;SDS011;23050;51.776;22.638;2023-03-23T12:19:18;8.55;;;5.47;;
37157;SDS011;23050;51.776;22.638;2023-03-23T12:27:29;9.07;;;4.85;;
37157;SDS011;23050;51.776;22.638;2023-03-23T12:44:06;29.23;;;14.57;;
37157;SDS011;23050;51.776;22.638;2023-03-23T12:51:49;20.77;;;10.50;;
37157;SDS011;23050;51.776;22.638;2023-03-23T12:54:26;12.23;;;6.75;;
37157;SDS011;23050;51.776;22.638;2023-03-23T13:00:03;9.55;;;5.97;;
37157;SDS011;23050;51.776;22.638;2023-03-23T13:07:52;18.60;;;10.55;;
37157;SDS011;23050;51.776;22.638;2023-03-23T13:10:29;15.43;;;8.40;;
37157;SDS011;23050;51.776;22.638;2023-03-23T13:13:19;14.63;;;8.48;;
37157;SDS011;23050;51.776;22.638;2023-03-23T13:21:38;10.02;;;5.70;;
37157;SDS011;23050;51.776;22.638;2023-03-23T13:24:18;8.98;;;6.07;;
37157;SDS011;23050;51.776;22.638;2023-03-23T13:26:49;10.55;;;6.60;;
37157;SDS011;23050;51.776;22.638;2023-03-23T13:29:19;11.65;;;5.70;;
37157;SDS011;23050;51.776;22.638;2023-03-23T13:31:49;10.15;;;5.63;;
37157;SDS011;23050;51.776;22.638;2023-03-23T13:34:16;13.30;;;6.38;;
37157;SDS011;23050;51.776;22.638;2023-03-23T13:36:43;8.82;;;5.65;;
37157;SDS011;23050;51.776;22.638;2023-03-23T13:39:18;8.93;;;5.57;;
37157;SDS011;23050;51.776;22.638;2023-03-23T13:41:58;15.43;;;7.47;;
37157;SDS011;23050;51.776;22.638;2023-03-23T13:44:27;11.10;;;6.03;;
37157;SDS011;23050;51.776;22.638;2023-03-23T13:47:16;13.07;;;6.40;;
37157;SDS011;23050;51.776;22.638;2023-03-23T13:50:00;10.27;;;6.03;;
37157;SDS011;23050;51.776;22.638;2023-03-23T13:52:36;8.23;;;5.55;;
37157;SDS011;23050;51.776;22.638;2023-03-23T14:08:20;11.00;;;7.47;;
37157;SDS011;23050;51.776;22.638;2023-03-23T14:10:56;15.70;;;6.50;;
37157;SDS011;23050;51.776;22.638;2023-03-23T14:18:57;10.90;;;6.22;;
37157;SDS011;23050;51.776;22.638;2023-03-23T14:21:32;47.65;;;25.08;;
37157;SDS011;23050;51.776;22.638;2023-03-23T14:24:12;46.88;;;23.30;;
37157;SDS011;23050;51.776;22.638;2023-03-23T14:26:42;24.88;;;13.57;;
37157;SDS011;23050;51.776;22.638;2023-03-23T14:29:10;8.57;;;5.57;;
37157;SDS011;23050;51.776;22.638;2023-03-23T14:31:37;8.80;;;5.32;;
37157;SDS011;23050;51.776;22.638;2023-03-23T14:34:09;10.13;;;5.30;;
37157;SDS011;23050;51.776;22.638;2023-03-23T14:36:40;10.65;;;6.05;;
37157;SDS011;23050;51.776;22.638;2023-03-23T14:41:53;10.65;;;6.25;;
37157;SDS011;23050;51.776;22.638;2023-03-23T14:44:27;10.57;;;5.32;;
37157;SDS011;23050;51.776;22.638;2023-03-23T14:46:55;10.35;;;5.72;;
37157;SDS011;23050;51.776;22.638;2023-03-23T14:49:44;13.17;;;5.60;;
37157;SDS011;23050;51.776;22.638;2023-03-23T14:52:11;12.45;;;5.68;;
37157;SDS011;23050;51.776;22.638;2023-03-23T14:54:39;13.70;;;6.70;;
37157;SDS011;23050;51.776;22.638;2023-03-23T14:57:16;8.43;;;5.20;;
37157;SDS011;23050;51.776;22.638;2023-03-23T15:00:01;7.07;;;4.50;;
37157;SDS011;23050;51.776;22.638;2023-03-23T15:02:30;12.82;;;5.57;;
37157;SDS011;23050;51.776;22.638;2023-03-23T15:04:59;7.47;;;4.75;;
37157;SDS011;23050;51.776;22.638;2023-03-23T15:07:35;11.75;;;4.88;;
37157;SDS011;23050;51.776;22.638;2023-03-23T15:10:05;8.85;;;5.00;;
37157;SDS011;23050;51.776;22.638;2023-03-23T15:12:33;14.75;;;4.72;;
37157;SDS011;23050;51.776;22.638;2023-03-23T15:15:01;6.80;;;5.03;;
37157;SDS011;23050;51.776;22.638;2023-03-23T15:17:30;8.90;;;4.72;;
37157;SDS011;23050;51.776;22.638;2023-03-23T15:20:06;10.20;;;5.45;;
37157;SDS011;23050;51.776;22.638;2023-03-23T15:22:34;10.88;;;6.20;;
37157;SDS011;23050;51.776;22.638;2023-03-23T15:25:10;10.15;;;5.55;;
37157;SDS011;23050;51.776;22.638;2023-03-23T15:27:44;7.93;;;4.55;;
37157;SDS011;23050;51.776;22.638;2023-03-23T15:32:51;7.80;;;4.68;;
37157;SDS011;23050;51.776;22.638;2023-03-23T15:35:32;11.30;;;6.22;;
37157;SDS011;23050;51.776;22.638;2023-03-23T15:38:01;13.30;;;5.63;;
37157;SDS011;23050;51.776;22.638;2023-03-23T15:40:32;16.75;;;11.57;;
37157;SDS011;23050;51.776;22.638;2023-03-23T15:48:31;16.00;;;9.23;;
37157;SDS011;23050;51.776;22.638;2023-03-23T15:51:19;58.80;;;27.88;;
37157;SDS011;23050;51.776;22.638;2023-03-23T15:53:47;184.13;;;86.82;;
37157;SDS011;23050;51.776;22.638;2023-03-23T15:56:14;267.60;;;134.70;;
37157;SDS011;23050;51.776;22.638;2023-03-23T15:58:40;79.10;;;56.15;;
37157;SDS011;23050;51.776;22.638;2023-03-23T16:06:11;31.40;;;24.38;;
37157;SDS011;23050;51.776;22.638;2023-03-23T16:08:38;17.35;;;14.05;;
37157;SDS011;23050;51.776;22.638;2023-03-23T16:11:10;16.70;;;12.45;;
37157;SDS011;23050;51.776;22.638;2023-03-23T16:13:37;15.63;;;9.40;;
37157;SDS011;23050;51.776;22.638;2023-03-23T16:16:03;17.40;;;8.90;;
37157;SDS011;23050;51.776;22.638;2023-03-23T16:18:32;17.77;;;10.23;;
37157;SDS011;23050;51.776;22.638;2023-03-23T16:20:58;18.20;;;11.45;;
37157;SDS011;23050;51.776;22.638;2023-03-23T16:23:24;25.30;;;12.20;;
37157;SDS011;23050;51.776;22.638;2023-03-23T16:25:50;25.10;;;16.75;;
37157;SDS011;23050;51.776;22.638;2023-03-23T16:28:16;30.42;;;17.23;;
37157;SDS011;23050;51.776;22.638;2023-03-23T16:30:45;27.85;;;16.00;;
37157;SDS011;23050;51.776;22.638;2023-03-23T16:33:11;25.00;;;15.23;;
37157;SDS011;23050;51.776;22.638;2023-03-23T16:35:37;62.63;;;45.53;;
37157;SDS011;23050;51.776;22.638;2023-03-23T16:38:03;108.07;;;48.10;;